Time;durP1;ratioP1;P1;durP2;ratioP2;P2;SDS_P1;SDS_P2;PMS_P1;PMS_P2;Temp;Humidity;BMP_temperature;BMP_pressure;BME280_temperature;BME280_humidity;BME280_pressure;Samples;Min_cycle;Max_cycle;Signal;HPM_P1;HPM_P2
2023/11/21 00:01:40;;;;;;;6.00;3.10;;;;;;;9.39;87.54;97607.22;4950909;28;20033;-73
2023/11/21 00:04:07;;;;;;;8.32;3.40;;;;;;;9.35;86.58;97606.91;4977776;28;20487;-72
2023/11/21 00:06:33;;;;;;;8.05;3.75;;;;;;;9.40;86.92;97612.34;4964814;28;20139;-70
2023/11/21 00:08:58;;;;;;;7.53;3.00;;;;;;;9.40;86.93;97615.03;4946418;28;20046;-70
2023/11/21 00:11:25;;;;;;;7.35;3.42;;;;;;;9.42;86.70;97620.97;4983590;28;20518;-72
2023/11/21 00:13:50;;;;;;;7.95;3.58;;;;;;;9.41;86.94;97613.97;4980437;28;20027;-70
2023/11/21 00:16:16;;;;;;;8.23;3.25;;;;;;;9.39;87.11;97616.09;4961293;28;20022;-72
2023/11/21 00:18:42;;;;;;;5.10;3.65;;;;;;;9.39;86.85;97618.78;4964497;28;20090;-72
2023/11/21 00:21:08;;;;;;;7.85;3.28;;;;;;;9.40;86.88;97622.28;4962779;28;20031;-72
2023/11/21 00:23:34;;;;;;;6.57;3.40;;;;;;;9.26;86.53;97597.66;4948635;28;20039;-73
2023/11/21 00:25:59;;;;;;;6.30;3.80;;;;;;;9.31;87.06;97611.13;4982194;28;20425;-71
2023/11/21 00:28:26;;;;;;;5.90;3.40;;;;;;;9.31;86.80;97611.13;4983868;28;20034;-71
2023/11/21 00:30:51;;;;;;;7.85;3.50;;;;;;;9.31;86.76;97610.34;4950189;28;20022;-73
2023/11/21 00:33:16;;;;;;;5.60;3.40;;;;;;;9.35;86.99;97622.22;4977872;28;20038;-71
2023/11/21 00:35:42;;;;;;;5.53;3.00;;;;;;;9.24;87.16;97607.81;4967039;28;20026;-72
2023/11/21 00:38:08;;;;;;;6.18;3.50;;;;;;;9.31;87.06;97619.19;4962900;28;20110;-72
2023/11/21 00:40:33;;;;;;;3.45;3.15;;;;;;;9.33;86.98;97614.41;4963457;28;20077;-72
2023/11/21 00:43:00;;;;;;;8.07;3.83;;;;;;;9.27;87.11;97599.28;4961333;28;20066;-72
2023/11/21 00:45:26;;;;;;;5.32;3.08;;;;;;;9.26;87.14;97607.59;4965586;28;20026;-73
2023/11/21 00:47:51;;;;;;;7.70;3.50;;;;;;;9.28;87.13;97606.28;4946616;28;20062;-73
2023/11/21 00:50:17;;;;;;;7.65;3.50;;;;;;;9.11;86.88;97584.03;4984896;28;20034;-74
2023/11/21 00:52:42;;;;;;;5.88;3.22;;;;;;;9.19;86.76;97602.41;4979289;28;20034;-73
2023/11/21 00:55:08;;;;;;;9.20;3.30;;;;;;;9.29;87.33;97617.84;4961801;28;20022;-73
2023/11/21 00:57:34;;;;;;;8.88;3.35;;;;;;;9.17;87.27;97599.13;4948297;28;20042;-73
2023/11/21 01:00:00;;;;;;;8.38;3.50;;;;;;;9.30;87.01;97620.28;4947911;28;20026;-74
2023/11/21 01:02:26;;;;;;;6.20;3.50;;;;;;;9.26;87.07;97619.16;4965522;28;20033;-73
2023/11/21 01:04:52;;;;;;;5.70;3.22;;;;;;;9.22;87.71;97606.47;4977353;28;20032;-74
2023/11/21 01:07:20;;;;;;;7.07;3.70;;;;;;;9.31;87.09;97624.56;4966704;28;20034;-73
2023/11/21 01:09:46;;;;;;;7.18;3.50;;;;;;;9.31;87.32;97629.94;4964667;28;20026;-72
2023/11/21 01:12:11;;;;;;;4.47;3.20;;;;;;;9.23;87.24;97619.66;4977345;28;20037;-73
2023/11/21 01:14:37;;;;;;;6.45;3.40;;;;;;;9.19;87.64;97613.16;4981920;28;20077;-73
2023/11/21 01:17:04;;;;;;;6.30;3.20;;;;;;;9.22;87.53;97620.69;4962450;28;20041;-73
2023/11/21 01:19:30;;;;;;;6.50;3.30;;;;;;;9.29;87.68;97629.38;4966555;28;20109;-73
2023/11/21 01:21:57;;;;;;;5.45;3.80;;;;;;;9.27;87.22;97631.53;4980452;28;20491;-73
2023/11/21 01:24:23;;;;;;;7.72;3.72;;;;;;;9.24;87.84;97626.63;4947491;28;20069;-73
2023/11/21 01:26:48;;;;;;;7.20;3.63;;;;;;;9.09;87.75;97602.28;4978277;28;20034;-72
2023/11/21 01:29:14;;;;;;;6.28;3.78;;;;;;;9.20;87.95;97624.69;4981918;28;20022;-72
2023/11/21 01:31:41;;;;;;;6.28;3.65;;;;;;;9.22;87.91;97623.38;4946427;28;20122;-72
2023/11/21 01:34:06;;;;;;;6.47;3.97;;;;;;;9.24;88.03;97621.25;4959922;28;20125;-72
2023/11/21 01:36:32;;;;;;;11.57;3.70;;;;;;;9.25;87.75;97628.28;4963134;28;20043;-71
2023/11/21 01:39:01;;;;;;;5.28;3.60;;;;;;;9.29;87.59;97618.66;4953732;28;20030;-71
2023/11/21 01:41:28;;;;;;;7.40;4.10;;;;;;;9.31;87.96;97621.88;4964486;28;20031;-72
2023/11/21 01:43:54;;;;;;;5.63;3.65;;;;;;;9.19;87.58;97607.78;4963167;28;20108;-73
2023/11/21 01:46:21;;;;;;;6.88;3.90;;;;;;;9.16;88.17;97613.66;4955885;28;20070;-71
2023/11/21 01:48:48;;;;;;;6.30;3.78;;;;;;;9.26;87.74;97627.22;4963858;28;20058;-71
2023/11/21 01:51:15;;;;;;;9.45;4.32;;;;;;;9.25;87.81;97633.66;4976813;28;20038;-72
2023/11/21 01:53:40;;;;;;;5.55;3.85;;;;;;;9.28;88.16;97635.03;4949179;28;20121;-71
2023/11/21 01:56:10;;;;;;;5.18;3.80;;;;;;;9.29;87.41;97629.38;4978075;28;20038;-72
2023/11/21 01:58:35;;;;;;;7.18;4.10;;;;;;;9.27;87.68;97628.84;4946868;28;20806;-72
2023/11/21 02:01:02;;;;;;;6.25;3.88;;;;;;;9.25;87.70;97622.91;4944340;28;20173;-72
2023/11/21 02:03:28;;;;;;;4.68;3.70;;;;;;;9.21;87.67;97611.03;4963282;28;20078;-73
2023/11/21 02:05:53;;;;;;;7.43;4.28;;;;;;;9.27;87.67;97610.03;4961630;28;20070;-73
2023/11/21 02:08:19;;;;;;;5.40;3.85;;;;;;;9.19;88.02;97602.41;4950273;28;20109;-73
2023/11/21 02:10:45;;;;;;;8.02;4.22;;;;;;;9.30;87.75;97624.84;4980010;28;20035;-71
2023/11/21 02:13:11;;;;;;;8.60;4.07;;;;;;;9.32;87.84;97623.53;4961369;28;20026;-72
2023/11/21 02:15:38;;;;;;;6.07;4.05;;;;;;;9.22;87.77;97609.97;4963969;28;20039;-73
2023/11/21 02:18:05;;;;;;;7.15;3.58;;;;;;;9.26;88.03;97613.78;4963563;28;20113;-73
2023/11/21 02:20:34;;;;;;;6.57;4.05;;;;;;;9.26;87.97;97607.59;4949142;28;20458;-72
2023/11/21 02:23:00;;;;;;;7.65;4.05;;;;;;;9.19;88.13;97602.41;4949422;28;20022;-72
2023/11/21 02:25:30;;;;;;;6.30;4.20;;;;;;;9.17;87.90;97604.50;4941311;28;20027;-73
2023/11/21 02:27:56;;;;;;;11.00;4.32;;;;;;;9.24;88.18;97610.50;4967132;28;20030;-72
2023/11/21 02:30:22;;;;;;;8.10;4.05;;;;;;;9.25;87.86;97617.53;4959349;28;20047;-71
2023/11/21 02:32:54;;;;;;;9.82;4.95;;;;;;;9.14;87.78;97594.28;4961777;28;20035;-71
2023/11/21 02:35:23;;;;;;;6.30;4.15;;;;;;;9.18;87.80;97606.16;4928342;28;20041;-72
2023/11/21 02:37:49;;;;;;;5.15;3.60;;;;;;;9.21;87.84;97611.03;4946600;28;20480;-72
2023/11/21 02:40:20;;;;;;;6.85;3.95;;;;;;;9.19;88.65;97612.34;4961540;28;20043;-72
2023/11/21 02:42:47;;;;;;;6.25;4.20;;;;;;;9.19;88.04;97613.16;4965115;28;20051;-71
2023/11/21 02:45:16;;;;;;;7.47;4.22;;;;;;;9.22;87.99;97611.84;4961805;28;20027;-71
2023/11/21 02:47:45;;;;;;;7.60;4.72;;;;;;;9.12;88.27;97595.59;4959594;28;20552;-71
2023/11/21 02:50:11;;;;;;;5.40;4.25;;;;;;;9.22;88.15;97615.31;4947557;28;20490;-72
2023/11/21 02:52:36;;;;;;;8.63;4.75;;;;;;;9.19;88.16;97605.09;4944242;28;20038;-74
2023/11/21 02:55:02;;;;;;;7.38;4.32;;;;;;;9.17;87.83;97599.13;4965794;28;20018;-71
2023/11/21 02:57:28;;;;;;;7.72;4.28;;;;;;;9.31;87.96;97616.50;4961884;28;20491;-71
2023/11/21 02:59:54;;;;;;;8.15;4.13;;;;;;;9.19;88.07;97590.84;4959311;28;20391;-71
2023/11/21 03:02:20;;;;;;;8.48;4.00;;;;;;;9.29;87.74;97607.91;4981115;28;20120;-71
2023/11/21 03:04:45;;;;;;;6.30;4.20;;;;;;;9.30;88.22;97609.53;4942827;28;20085;-73
2023/11/21 03:07:10;;;;;;;7.40;3.63;;;;;;;9.29;87.77;97612.47;4982241;28;20034;-72
2023/11/21 03:09:36;;;;;;;5.65;4.10;;;;;;;9.33;88.29;97619.78;4962169;28;20029;-70
2023/11/21 03:12:01;;;;;;;6.38;3.90;;;;;;;9.39;88.14;97618.78;4961050;28;20045;-72
2023/11/21 03:14:27;;;;;;;7.47;4.00;;;;;;;9.32;87.91;97607.41;4980523;28;20117;-72
2023/11/21 03:16:52;;;;;;;8.20;4.72;;;;;;;9.36;88.02;97613.91;4962592;28;20039;-71
2023/11/21 03:19:18;;;;;;;9.20;4.97;;;;;;;9.31;87.94;97608.44;4962936;28;20034;-71
2023/11/21 03:21:43;;;;;;;10.40;5.40;;;;;;;9.29;87.80;97601.72;4963618;28;20038;-72
2023/11/21 03:24:09;;;;;;;8.13;4.97;;;;;;;9.31;88.22;97621.09;4967316;28;20027;-71
2023/11/21 03:26:34;;;;;;;10.25;5.28;;;;;;;9.30;87.75;97620.28;4964591;28;20046;-72
2023/11/21 03:29:00;;;;;;;9.90;5.30;;;;;;;9.26;88.18;97621.84;4970088;28;20033;-71
2023/11/21 03:31:26;;;;;;;8.77;5.63;;;;;;;9.31;87.95;97635.31;4966063;28;20035;-70
2023/11/21 03:33:53;;;;;;;8.43;5.78;;;;;;;9.29;88.23;97624.03;4963360;28;20406;-71
2023/11/21 03:36:19;;;;;;;7.53;5.32;;;;;;;9.34;88.17;97640.19;4968357;28;20034;-72
2023/11/21 03:38:45;;;;;;;7.85;5.30;;;;;;;9.36;88.04;97632.69;4964580;28;20034;-71
2023/11/21 03:41:10;;;;;;;8.85;5.85;;;;;;;9.36;87.82;97630.00;4970239;28;20515;-72
2023/11/21 03:43:39;;;;;;;9.75;6.05;;;;;;;9.36;88.08;97624.63;4964997;28;20023;-72
2023/11/21 03:46:04;;;;;;;7.35;5.25;;;;;;;9.33;88.19;97619.78;4979988;28;20046;-71
2023/11/21 03:48:30;;;;;;;6.75;4.80;;;;;;;9.24;88.40;97607.81;4966215;28;20185;-72
2023/11/21 03:50:55;;;;;;;9.15;4.32;;;;;;;9.32;88.09;97618.16;4950221;28;20046;-72
2023/11/21 03:53:21;;;;;;;8.73;5.80;;;;;;;9.24;87.81;97605.13;4980739;28;20033;-71
2023/11/21 03:55:46;;;;;;;9.68;7.15;;;;;;;9.30;88.83;97620.28;4962567;28;20054;-74
2023/11/21 03:58:12;;;;;;;7.35;5.93;;;;;;;9.31;88.42;97621.88;4950221;28;20034;-73
2023/11/21 04:00:38;;;;;;;7.45;5.82;;;;;;;9.24;88.51;97607.81;4963399;28;20529;-71
2023/11/21 04:03:03;;;;;;;9.07;6.07;;;;;;;9.28;88.22;97622.41;4950930;28;20027;-70
2023/11/21 04:05:28;;;;;;;9.18;5.90;;;;;;;9.26;88.70;97621.84;4980494;28;20043;-72
2023/11/21 04:07:54;;;;;;;8.30;6.00;;;;;;;9.32;88.63;97625.38;4986868;28;20053;-71
2023/11/21 04:10:19;;;;;;;10.15;5.63;;;;;;;9.34;88.65;97632.16;4966578;28;20041;-71
2023/11/21 04:12:45;;;;;;;7.57;4.97;;;;;;;9.34;88.61;97632.16;4978489;28;20022;-71
2023/11/21 04:15:12;;;;;;;8.93;6.18;;;;;;;9.36;88.94;97637.28;4984844;28;20038;-71
2023/11/21 04:17:37;;;;;;;10.65;6.07;;;;;;;9.36;88.87;97640.75;4963238;28;20034;-70
2023/11/21 04:20:08;;;;;;;11.80;6.40;;;;;;;9.35;88.50;97633.78;4988197;28;20034;-70
2023/11/21 04:22:36;;;;;;;11.40;6.28;;;;;;;9.36;88.33;97640.75;4982061;28;20042;-71
2023/11/21 04:25:02;;;;;;;8.98;7.18;;;;;;;9.38;88.67;97644.00;4964039;28;20019;-71
2023/11/21 04:27:27;;;;;;;9.35;6.40;;;;;;;9.38;88.70;97649.38;4982502;28;20069;-71
2023/11/21 04:29:53;;;;;;;9.15;6.40;;;;;;;9.42;88.68;97649.72;4982534;28;20069;-71
2023/11/21 04:32:18;;;;;;;8.55;6.22;;;;;;;9.43;88.41;97652.13;4964898;28;20506;-70
2023/11/21 04:34:43;;;;;;;9.52;6.32;;;;;;;9.42;88.71;97655.91;4962976;28;20023;-71
2023/11/21 04:37:10;;;;;;;8.90;6.70;;;;;;;9.26;88.60;97635.28;4984462;28;20042;-70
2023/11/21 04:39:35;;;;;;;10.40;6.97;;;;;;;9.31;89.23;97654.13;4963799;28;20454;-69
2023/11/21 04:42:01;;;;;;;11.20;7.32;;;;;;;9.34;88.82;97655.50;4968912;28;20065;-69
2023/11/21 04:44:26;;;;;;;10.85;7.70;;;;;;;9.27;89.11;97641.44;4980095;28;20030;-70
2023/11/21 04:46:52;;;;;;;12.38;8.43;;;;;;;9.23;89.28;97640.31;4945519;28;20062;-70
2023/11/21 04:49:17;;;;;;;11.07;8.52;;;;;;;9.32;88.85;97655.78;4984356;28;20030;-70
2023/11/21 04:51:43;;;;;;;12.60;9.52;;;;;;;9.32;88.79;97660.31;4961707;28;20062;-69
2023/11/21 04:54:09;;;;;;;10.95;8.52;;;;;;;9.19;88.85;97629.28;4984971;28;20371;-72
2023/11/21 04:56:34;;;;;;;10.13;8.75;;;;;;;9.33;88.72;97654.72;4979968;28;20045;-72
2023/11/21 04:58:59;;;;;;;12.35;8.95;;;;;;;9.24;88.80;97653.50;4962819;28;20030;-69
2023/11/21 05:01:25;;;;;;;15.05;11.73;;;;;;;9.28;88.84;97660.03;4963295;28;20034;-69
2023/11/21 05:03:50;;;;;;;11.25;9.75;;;;;;;9.35;88.78;97666.03;4946123;28;20419;-69
2023/11/21 05:06:16;;;;;;;11.70;9.50;;;;;;;9.35;88.78;97666.03;4981048;28;20113;-70
2023/11/21 05:08:42;;;;;;;13.45;10.00;;;;;;;9.36;88.77;97656.09;4967535;28;20026;-68
2023/11/21 05:11:10;;;;;;;18.23;10.00;;;;;;;9.28;88.62;97651.16;4982560;28;20510;-68
2023/11/21 05:13:36;;;;;;;15.23;10.27;;;;;;;9.34;88.48;97667.06;4979594;28;20118;-69
2023/11/21 05:16:05;;;;;;;15.23;11.05;;;;;;;9.31;88.96;97664.09;4984165;28;20169;-69
2023/11/21 05:18:30;;;;;;;13.45;11.60;;;;;;;9.31;88.93;97664.88;4978730;28;20119;-69
2023/11/21 05:20:56;;;;;;;13.30;10.90;;;;;;;9.23;88.76;97651.06;4959219;28;20069;-71
2023/11/21 05:23:22;;;;;;;19.27;13.07;;;;;;;9.34;88.68;97669.75;4963018;28;20030;-68
2023/11/21 05:25:47;;;;;;;18.90;13.05;;;;;;;9.27;89.03;97662.94;4944317;28;20105;-68
2023/11/21 05:28:13;;;;;;;14.13;11.40;;;;;;;9.35;89.00;97671.41;4965468;28;20026;-71
2023/11/21 05:30:39;;;;;;;19.15;15.00;;;;;;;9.28;89.03;97684.22;4961449;28;20035;-69
2023/11/21 05:33:05;;;;;;;14.48;11.00;;;;;;;9.30;88.92;97675.88;4985597;28;20026;-68
2023/11/21 05:35:30;;;;;;;14.63;10.55;;;;;;;9.29;88.69;97677.75;4960119;28;20026;-69
2023/11/21 05:37:56;;;;;;;12.10;10.50;;;;;;;9.27;88.77;97679.88;4975666;28;20051;-67
2023/11/21 05:40:22;;;;;;;12.20;9.95;;;;;;;9.32;88.96;97690.69;4962999;28;20054;-70
2023/11/21 05:42:48;;;;;;;14.23;10.90;;;;;;;9.32;89.04;97693.38;4964491;28;20031;-69
2023/11/21 05:45:15;;;;;;;15.43;10.57;;;;;;;9.33;89.07;97694.22;4949683;28;20043;-68
2023/11/21 05:47:42;;;;;;;11.85;10.57;;;;;;;9.36;89.00;97696.41;4944635;28;20026;-69
2023/11/21 05:50:14;;;;;;;12.77;10.77;;;;;;;9.27;88.59;97676.38;4980390;28;20042;-69
2023/11/21 05:52:41;;;;;;;13.63;10.30;;;;;;;9.36;88.87;97694.50;4944298;28;20043;-69
2023/11/21 05:55:07;;;;;;;15.00;10.63;;;;;;;9.31;88.96;97691.75;4965790;28;20499;-69
2023/11/21 05:57:40;;;;;;;18.50;11.55;;;;;;;9.38;88.77;97697.75;4977697;28;20491;-69
2023/11/21 06:00:22;;;;;;;14.55;11.35;;;;;;;9.37;89.05;97685.41;4967531;28;20076;-70
2023/11/21 06:02:53;;;;;;;15.20;11.00;;;;;;;9.20;88.74;97663.13;4964439;28;20510;-69
2023/11/21 06:05:19;;;;;;;14.82;12.10;;;;;;;9.35;89.32;97695.59;4961816;28;20046;-70
2023/11/21 06:07:45;;;;;;;16.67;12.70;;;;;;;9.27;89.55;97706.75;4965212;28;20471;-70
2023/11/21 06:10:12;;;;;;;17.48;12.77;;;;;;;9.27;89.88;97709.44;4982734;28;20429;-70
2023/11/21 06:12:39;;;;;;;20.15;14.45;;;;;;;9.31;89.75;97717.81;4958390;28;20081;-70
2023/11/21 06:15:08;;;;;;;22.63;16.13;;;;;;;9.15;89.63;97706.03;4967419;28;20034;-71
2023/11/21 06:17:36;;;;;;;26.30;18.90;;;;;;;9.15;89.85;97706.03;4944609;28;20030;-70
2023/11/21 06:20:11;;;;;;;29.75;23.98;;;;;;;9.24;89.81;97723.34;4977956;28;20079;-70
2023/11/21 06:22:41;;;;;;;23.60;14.95;;;;;;;9.19;89.98;97720.63;4975142;28;20040;-70
2023/11/21 06:25:08;;;;;;;19.33;13.35;;;;;;;9.21;89.97;97734.63;4944656;28;20089;-69
2023/11/21 06:27:54;;;;;;;16.75;12.93;;;;;;;9.22;89.66;97741.59;4962065;28;20031;-71
2023/11/21 06:30:20;;;;;;;18.48;14.38;;;;;;;9.09;89.99;97709.72;4976167;28;20070;-70
2023/11/21 06:32:48;;;;;;;14.32;12.30;;;;;;;9.29;89.62;97747.63;4961514;28;20023;-70
2023/11/21 06:35:13;;;;;;;17.60;11.90;;;;;;;9.29;89.52;97736.88;4976740;28;20031;-70
2023/11/21 06:37:39;;;;;;;18.98;15.52;;;;;;;9.30;89.71;97745.75;4963556;28;20034;-70
2023/11/21 06:40:05;;;;;;;22.45;16.60;;;;;;;9.31;89.62;97750.88;4960294;28;20031;-70
2023/11/21 06:42:30;;;;;;;26.23;19.52;;;;;;;9.33;89.64;97759.53;4982968;28;20031;-71
2023/11/21 06:44:57;;;;;;;20.88;16.23;;;;;;;9.36;89.41;97753.63;4961350;28;20046;-70
2023/11/21 06:47:27;;;;;;;23.83;18.13;;;;;;;9.30;90.06;97751.94;4939682;28;20037;-70
2023/11/21 06:49:53;;;;;;;18.42;12.88;;;;;;;9.34;89.86;97760.31;4963097;28;20046;-70
2023/11/21 06:52:19;;;;;;;21.30;14.50;;;;;;;9.28;89.94;97751.38;4969185;28;20018;-74
2023/11/21 06:54:45;;;;;;;19.25;14.00;;;;;;;9.35;89.82;97762.78;4935845;28;20026;-71
2023/11/21 06:57:10;;;;;;;36.00;26.13;;;;;;;9.37;89.81;97765.19;4967112;28;20160;-71
2023/11/21 06:59:36;;;;;;;38.45;27.63;;;;;;;9.33;89.82;97767.56;4941827;28;20118;-70
2023/11/21 07:02:01;;;;;;;18.58;13.05;;;;;;;9.28;89.66;97764.81;4968967;28;20080;-70
2023/11/21 07:04:26;;;;;;;14.25;10.73;;;;;;;9.30;89.95;97770.75;4983079;28;20030;-71
2023/11/21 07:06:53;;;;;;;13.77;10.50;;;;;;;9.28;89.98;97772.06;4951039;28;20026;-69
2023/11/21 07:09:21;;;;;;;13.77;10.15;;;;;;;9.27;89.79;97773.91;4962353;28;20042;-69
2023/11/21 07:11:48;;;;;;;18.27;11.70;;;;;;;9.31;89.82;97783.09;4988396;28;20030;-71
2023/11/21 07:14:13;;;;;;;16.65;12.07;;;;;;;9.31;89.88;97783.09;4964191;28;20031;-71
2023/11/21 07:16:38;;;;;;;16.25;11.85;;;;;;;9.29;90.12;97790.59;4984655;28;20037;-71
2023/11/21 07:19:07;;;;;;;14.25;12.40;;;;;;;9.23;89.86;97780.03;4975459;28;20047;-70
2023/11/21 07:21:35;;;;;;;24.50;18.40;;;;;;;9.36;89.47;97795.84;4982247;28;20030;-70
2023/11/21 07:24:02;;;;;;;24.85;22.23;;;;;;;9.30;89.96;97786.88;4968785;28;20193;-72
2023/11/21 07:26:28;;;;;;;19.33;16.88;;;;;;;9.31;89.21;97793.06;4954613;28;20105;-72
2023/11/21 07:28:54;;;;;;;22.50;18.33;;;;;;;9.40;89.54;97811.22;4966489;28;20113;-73
2023/11/21 07:31:20;;;;;;;22.85;17.80;;;;;;;9.35;89.57;97800.38;4963908;28;20130;-72
2023/11/21 07:33:49;;;;;;;18.23;16.05;;;;;;;9.43;89.71;97808.00;4957874;28;20035;-72
2023/11/21 07:36:23;;;;;;;20.25;16.10;;;;;;;9.41;89.83;97804.75;4969196;28;20109;-72
2023/11/21 07:38:49;;;;;;;26.63;19.17;;;;;;;9.47;89.71;97814.56;4987255;28;20137;-73
2023/11/21 07:41:17;;;;;;;28.50;20.08;;;;;;;9.47;89.68;97813.72;4955391;28;20126;-73
2023/11/21 07:43:43;;;;;;;24.00;19.10;;;;;;;9.47;90.04;97811.88;4987467;28;21914;-73
2023/11/21 07:46:08;;;;;;;29.08;21.05;;;;;;;9.38;89.60;97815.22;4974477;28;20030;-73
2023/11/21 07:48:34;;;;;;;27.17;19.90;;;;;;;9.48;90.04;97821.53;4974478;28;20384;-73
2023/11/21 07:51:03;;;;;;;26.27;17.77;;;;;;;9.44;89.64;97809.66;4967631;28;20022;-74
2023/11/21 07:53:30;;;;;;;25.58;17.25;;;;;;;9.39;90.02;97812.25;4973480;28;20042;-72
2023/11/21 07:56:08;;;;;;;23.95;17.38;;;;;;;9.53;89.90;97824.31;4975114;28;20042;-72
2023/11/21 07:58:37;;;;;;;27.80;17.85;;;;;;;9.56;89.78;97823.00;4974874;28;20046;-74
2023/11/21 08:01:03;;;;;;;25.75;17.58;;;;;;;9.61;90.06;97831.94;4972134;28;20405;-74
2023/11/21 08:03:30;;;;;;;23.92;16.83;;;;;;;9.42;89.81;97806.41;4956646;28;20034;-74
2023/11/21 08:05:56;;;;;;;23.15;16.60;;;;;;;9.55;89.57;97822.19;4956767;28;20475;-73
2023/11/21 08:08:23;;;;;;;25.25;18.30;;;;;;;9.61;89.49;97829.25;4971147;28;20062;-73
2023/11/21 08:10:55;;;;;;;21.83;16.52;;;;;;;9.66;89.51;97829.31;4975965;28;20490;-72
2023/11/21 08:13:25;;;;;;;22.77;15.70;;;;;;;9.63;89.77;97835.22;4973465;28;20040;-72
2023/11/21 08:15:50;;;;;;;24.35;17.05;;;;;;;9.53;89.80;97829.69;4981288;28;20157;-72
2023/11/21 08:18:17;;;;;;;27.73;18.70;;;;;;;9.61;89.62;97831.13;4988515;28;20120;-72
2023/11/21 08:20:47;;;;;;;29.55;19.20;;;;;;;9.59;89.94;97839.44;4969030;28;20018;-72
2023/11/21 08:23:15;;;;;;;30.75;20.15;;;;;;;9.55;89.91;97849.06;4970853;28;20104;-73
2023/11/21 08:25:42;;;;;;;26.88;19.60;;;;;;;9.56;90.11;97839.94;4974435;28;20026;-72
2023/11/21 08:28:07;;;;;;;31.25;20.10;;;;;;;9.64;89.88;97842.19;4966509;28;20038;-72
2023/11/21 08:30:33;;;;;;;23.75;18.33;;;;;;;9.60;89.57;97834.88;4957086;28;20399;-73
2023/11/21 08:32:58;;;;;;;28.05;19.33;;;;;;;9.62;89.75;97832.75;4968110;28;20046;-73
2023/11/21 08:35:24;;;;;;;30.15;23.00;;;;;;;9.57;89.00;97817.38;4960661;28;20110;-75
2023/11/21 08:37:53;;;;;;;34.13;21.20;;;;;;;9.79;89.39;97855.06;4962453;28;20043;-74
2023/11/21 08:40:20;;;;;;;27.58;20.38;;;;;;;9.73;89.59;97854.16;4978672;28;20041;-74
2023/11/21 08:42:45;;;;;;;27.42;19.55;;;;;;;9.74;89.44;97847.72;4964043;28;20035;-75
2023/11/21 08:45:12;;;;;;;27.05;19.48;;;;;;;9.71;89.59;97853.59;4962649;28;20034;-74
2023/11/21 08:47:38;;;;;;;26.20;20.02;;;;;;;9.79;89.14;97859.63;4982746;28;20042;-75
2023/11/21 08:50:06;;;;;;;26.17;19.15;;;;;;;9.78;89.13;97858.00;4975006;28;20119;-75
2023/11/21 08:52:31;;;;;;;31.75;19.58;;;;;;;9.85;88.95;97858.66;4976593;28;20070;-74
2023/11/21 08:54:56;;;;;;;26.45;20.20;;;;;;;9.79;89.07;97854.22;4942414;28;20479;-74
2023/11/21 08:57:23;;;;;;;27.15;18.83;;;;;;;9.92;89.16;97860.06;4978501;28;20066;-72
2023/11/21 08:59:48;;;;;;;25.23;17.08;;;;;;;10.03;88.77;97871.78;4965502;28;20058;-72
2023/11/21 09:02:13;;;;;;;20.73;16.60;;;;;;;10.03;88.88;97867.25;4948874;28;20144;-72
2023/11/21 09:04:39;;;;;;;21.30;16.02;;;;;;;10.08;88.66;97874.56;4956953;28;20027;-72
2023/11/21 09:07:05;;;;;;;21.63;16.88;;;;;;;10.10;88.74;97872.44;4967785;28;20034;-73
2023/11/21 09:09:30;;;;;;;20.48;16.15;;;;;;;10.15;88.19;97881.41;4977171;28;20046;-73
2023/11/21 09:11:56;;;;;;;18.42;14.82;;;;;;;10.14;88.04;97862.81;4979067;28;20035;-73
2023/11/21 09:14:21;;;;;;;18.35;14.65;;;;;;;10.22;87.65;97886.63;4961472;28;20034;-73
2023/11/21 09:16:46;;;;;;;15.07;12.52;;;;;;;10.20;87.96;97883.34;4961791;28;20515;-73
2023/11/21 09:19:14;;;;;;;22.83;15.63;;;;;;;10.24;87.70;97871.03;4976934;28;20031;-72
2023/11/21 09:21:39;;;;;;;16.70;13.95;;;;;;;10.37;87.24;97881.41;4977045;28;20038;-73
2023/11/21 09:24:05;;;;;;;14.93;12.45;;;;;;;10.23;86.53;97877.47;4964316;28;20023;-73
2023/11/21 09:26:30;;;;;;;15.32;11.77;;;;;;;10.21;86.55;97880.41;4989678;28;20034;-73
2023/11/21 09:28:56;;;;;;;16.35;13.15;;;;;;;10.28;85.95;97891.00;4987359;28;20037;-73
2023/11/21 09:31:22;;;;;;;13.43;10.90;;;;;;;10.30;86.39;97883.47;4960957;28;20049;-73
2023/11/21 09:33:48;;;;;;;11.93;10.68;;;;;;;10.37;86.11;97895.69;4957390;28;20122;-72
2023/11/21 09:36:14;;;;;;;11.75;9.95;;;;;;;10.45;85.82;97890.94;4981094;28;20157;-73
2023/11/21 09:38:41;;;;;;;10.57;9.35;;;;;;;10.52;85.35;97896.94;4976649;28;20027;-73
2023/11/21 09:41:19;;;;;;;13.27;9.57;;;;;;;10.51;84.64;97896.13;4975585;28;20042;-73
2023/11/21 09:43:46;;;;;;;10.02;8.63;;;;;;;10.51;84.76;97885.34;4963191;28;20084;-73
2023/11/21 09:46:16;;;;;;;9.93;8.93;;;;;;;10.57;83.86;97895.09;4943940;28;20077;-72
2023/11/21 09:48:43;;;;;;;11.48;9.55;;;;;;;10.52;83.68;97884.31;4965558;28;20050;-72
2023/11/21 09:51:08;;;;;;;11.73;8.82;;;;;;;10.48;83.81;97895.81;4960729;28;20045;-73
2023/11/21 09:53:34;;;;;;;13.45;9.43;;;;;;;10.49;83.23;97911.72;4961218;28;20558;-73
2023/11/21 09:56:02;;;;;;;9.98;8.95;;;;;;;10.54;83.51;97900.19;4959519;28;20106;-72
2023/11/21 09:58:28;;;;;;;11.23;10.13;;;;;;;10.54;83.10;97894.81;4957573;28;20073;-73
2023/11/21 10:00:56;;;;;;;10.32;8.68;;;;;;;10.61;83.22;97892.75;4977669;28;20450;-73
2023/11/21 10:03:21;;;;;;;10.77;8.50;;;;;;;10.73;82.87;97894.25;4965738;28;20537;-73
2023/11/21 10:05:49;;;;;;;10.35;8.10;;;;;;;10.91;82.06;97910.06;4978356;28;20030;-73
2023/11/21 10:08:15;;;;;;;18.75;14.98;;;;;;;10.82;82.33;97898.13;4959220;28;20434;-75
2023/11/21 10:10:45;;;;;;;10.07;8.30;;;;;;;10.81;81.71;97880.31;4961818;28;20027;-74
2023/11/21 10:13:12;;;;;;;15.35;10.95;;;;;;;11.00;82.54;97908.53;4964117;28;20044;-74
2023/11/21 10:15:38;;;;;;;11.80;9.40;;;;;;;11.08;81.57;97902.66;4962408;28;20471;-74
2023/11/21 10:18:04;;;;;;;9.50;8.35;;;;;;;11.21;81.73;97914.13;4961876;28;20041;-72
2023/11/21 10:20:30;;;;;;;11.52;8.45;;;;;;;11.07;81.39;97906.44;4947741;28;20118;-72
2023/11/21 10:22:58;;;;;;;15.30;10.82;;;;;;;11.00;81.35;97900.44;4958910;28;20081;-72
2023/11/21 10:25:24;;;;;;;8.70;7.80;;;;;;;11.04;80.71;97912.34;4956563;28;20034;-72
2023/11/21 10:27:52;;;;;;;11.60;8.05;;;;;;;11.13;79.95;97913.50;4963823;28;20553;-73
2023/11/21 10:30:17;;;;;;;8.30;7.40;;;;;;;11.17;79.86;97902.22;4958146;28;20034;-73
2023/11/21 10:32:43;;;;;;;8.77;7.97;;;;;;;11.19;79.64;97913.56;4964934;28;20038;-73
2023/11/21 10:35:12;;;;;;;11.65;9.35;;;;;;;11.09;79.79;97908.88;4945131;28;20054;-72
2023/11/21 10:37:40;;;;;;;9.70;8.70;;;;;;;11.19;79.58;97929.72;4963473;28;20034;-71
2023/11/21 10:40:13;;;;;;;10.10;9.02;;;;;;;11.01;79.67;97918.25;4946217;28;20488;-72
2023/11/21 10:42:40;;;;;;;11.63;8.60;;;;;;;10.86;79.45;97910.00;4964770;28;20046;-73
2023/11/21 10:45:14;;;;;;;11.77;8.20;;;;;;;10.83;80.10;97926.66;4977804;28;20506;-72
2023/11/21 10:47:41;;;;;;;11.68;8.65;;;;;;;10.83;80.56;97926.66;4966264;28;20085;-73
2023/11/21 10:50:10;;;;;;;10.70;8.45;;;;;;;10.84;80.40;97927.47;4962664;28;20034;-72
2023/11/21 10:52:39;;;;;;;9.00;7.82;;;;;;;10.82;80.57;97930.44;4960470;28;20083;-72
2023/11/21 10:55:16;;;;;;;10.07;8.88;;;;;;;10.76;80.45;97925.25;4981906;28;20019;-74
2023/11/21 10:57:41;;;;;;;12.20;8.30;;;;;;;10.74;80.68;97914.72;4978107;28;20118;-74
2023/11/21 11:00:07;;;;;;;9.93;8.57;;;;;;;10.82;80.50;97919.66;4966328;28;20105;-75
2023/11/21 11:02:34;;;;;;;9.93;7.55;;;;;;;10.84;80.49;97930.16;4945447;28;20034;-74
2023/11/21 11:05:00;;;;;;;9.77;7.57;;;;;;;10.96;79.73;97928.97;4951720;28;20113;-72
2023/11/21 11:07:27;;;;;;;7.65;6.25;;;;;;;10.94;79.93;97920.34;4971738;28;20455;-72
2023/11/21 11:09:56;;;;;;;9.98;7.63;;;;;;;11.01;79.41;97929.03;4963736;28;20026;-72
2023/11/21 11:12:21;;;;;;;7.85;7.10;;;;;;;10.75;78.29;97897.50;4941542;28;20118;-72
2023/11/21 11:14:48;;;;;;;8.05;6.78;;;;;;;10.83;78.59;97926.66;4956733;28;20114;-72
2023/11/21 11:17:14;;;;;;;11.23;7.53;;;;;;;10.77;79.19;97921.47;4938514;28;20427;-73
2023/11/21 11:19:40;;;;;;;9.07;7.13;;;;;;;10.64;79.96;97919.97;4944997;28;20023;-72
2023/11/21 11:22:17;;;;;;;8.63;6.57;;;;;;;10.70;79.65;97918.97;4931314;28;20039;-72
2023/11/21 11:24:45;;;;;;;11.38;8.10;;;;;;;10.74;79.34;97917.41;4973134;28;20046;-72
2023/11/21 11:27:33;;;;;;;7.88;7.07;;;;;;;10.81;78.67;97923.41;4975446;28;20031;-72
2023/11/21 11:30:07;;;;;;;7.32;6.10;;;;;;;10.92;79.21;97919.75;4957915;28;20042;-73